Meath Environmental Platform

Observations for Trim Patrick St

Time AQI Temp °C Hum % Pres Pa CO μg/m³ H₂S μg/m³ NO μg/m³ NO₂ μg/m³ O₃ μg/m³ SO₂ μg/m³ PM1 μg/m³ PM2.5 μg/m³ PM10 μg/m³
Saturday 1 August 2026
03:08 2 12.3 73 38,460 0.36 2.41 3.89 24.2 42.54 0 8 13.51 14.87
03:07 2 12.3 74 38,460 0.35 1.95 3.89 13.25 30.47 0 6.29 12.05 13.26
03:06 2 12.3 73 38,460 0.35 3.58 3.91 15.54 23.12 0 7.14 12.8 14.08
03:05 2 12.4 74 38,460 0.35 3.81 3.89 23.79 50.23 0 6.29 9.91 10.9
03:04 2 12.4 73 38,460 0.34 3.92 3.9 23.67 43.19 0 8 14.25 15.67
03:03 2 12.4 74 38,460 0.35 3.45 3.88 16.17 39.01 0 7.14 12.78 14.06
03:02 2 12.4 74 38,460 0.35 3.32 3.85 17.23 42.21 0 8.86 14.19 15.61
03:01 2 12.4 73 38,460 0.34 3.71 3.83 19.43 41.78 0 5.43 10.71 11.78
03:00 2 12.4 72 38,460 0.35 3.37 3.87 15.46 38.97 0 8.86 12.19 13.41
02:59 2 12.4 71 38,460 0.34 3.66 3.86 20.63 36.96 0 8 13.71 15.08
02:58 2 12.4 72 38,460 0.35 3.06 3.89 15.94 41.25 0 8.86 13.6 14.96
02:57 2 12.4 73 38,460 0.33 3.48 3.91 21.9 42.44 0 7.14 12.83 14.12
02:51 2 12.5 74 38,460 0.32 3.27 3.85 15.22 35.21 0 8 13.5 14.85
02:50 2 12.5 73 38,460 0.33 4.31 3.83 23.18 51.07 0 7.14 12.83 14.11
02:45 2 12.6 73 38,460 0.32 3.17 3.77 19.11 50.5 0 8 12.81 14.09
02:44 2 12.6 72 38,460 0.3 3.33 3.77 16.38 42.71 0 7.14 12.24 13.46
02:43 2 12.6 70 38,460 0.31 2.6 3.75 16.5 20.98 0 5.43 10.96 12.06
02:42 2 12.6 72 38,460 0.31 3.25 3.81 21.98 46.49 0 7.14 12.21 13.43
02:41 2 12.6 72 38,460 0.31 2.08 3.81 11.92 28.59 0 6.29 11.51 12.66
02:40 2 12.7 72 38,460 0.31 2.97 3.81 16.45 37.6 0 6.29 13.61 14.97